sensor_id;sensor_type;location;lat;lon;timestamp;pressure;altitude;pressure_sealevel;temperature;humidity
11038;BME280;5572;49.540;11.932;2023-02-13T00:01:08;98411.91;;;0.95;100.00
11038;BME280;5572;49.540;11.932;2023-02-13T00:03:37;98410.78;;;0.75;100.00
11038;BME280;5572;49.540;11.932;2023-02-13T00:06:05;98404.00;;;0.87;100.00
11038;BME280;5572;49.540;11.932;2023-02-13T00:08:32;98416.88;;;0.69;100.00
11038;BME280;5572;49.540;11.932;2023-02-13T00:11:00;98406.41;;;0.82;100.00
11038;BME280;5572;49.540;11.932;2023-02-13T00:13:28;98413.47;;;0.75;100.00
11038;BME280;5572;49.540;11.932;2023-02-13T00:15:56;98407.22;;;0.97;100.00
11038;BME280;5572;49.540;11.932;2023-02-13T00:18:24;98415.31;;;0.89;100.00
11038;BME280;5572;49.540;11.932;2023-02-13T00:21:01;98407.22;;;0.82;100.00
11038;BME280;5572;49.540;11.932;2023-02-13T00:23:30;98402.28;;;0.94;100.00
11038;BME280;5572;49.540;11.932;2023-02-13T00:25:57;98410.81;;;0.89;100.00
11038;BME280;5572;49.540;11.932;2023-02-13T00:28:26;98404.66;;;0.89;100.00
11038;BME280;5572;49.540;11.932;2023-02-13T00:31:01;98420.63;;;1.03;100.00
11038;BME280;5572;49.540;11.932;2023-02-13T00:33:29;98401.19;;;0.88;100.00
11038;BME280;5572;49.540;11.932;2023-02-13T00:36:03;98412.19;;;1.00;100.00
11038;BME280;5572;49.540;11.932;2023-02-13T00:38:31;98416.97;;;1.04;100.00
11038;BME280;5572;49.540;11.932;2023-02-13T00:40:58;98428.97;;;1.15;100.00
11038;BME280;5572;49.540;11.932;2023-02-13T00:43:26;98416.22;;;0.96;100.00
11038;BME280;5572;49.540;11.932;2023-02-13T00:45:53;98418.16;;;1.02;100.00
11038;BME280;5572;49.540;11.932;2023-02-13T00:48:23;98431.63;;;1.00;100.00
11038;BME280;5572;49.540;11.932;2023-02-13T00:50:50;98437.25;;;1.05;100.00
11038;BME280;5572;49.540;11.932;2023-02-13T00:53:19;98438.72;;;0.93;100.00
11038;BME280;5572;49.540;11.932;2023-02-13T00:55:52;98440.56;;;0.93;100.00
11038;BME280;5572;49.540;11.932;2023-02-13T01:02:35;98446.44;;;1.03;100.00
11038;BME280;5572;49.540;11.932;2023-02-13T01:06:06;98449.72;;;1.05;100.00
11038;BME280;5572;49.540;11.932;2023-02-13T07:21:50;98984.50;;;1.54;100.00
11038;BME280;5572;49.540;11.932;2023-02-13T07:31:04;99000.53;;;1.76;100.00
11038;BME280;5572;49.540;11.932;2023-02-13T07:40:27;98905.56;;;1.53;100.00
11038;BME280;5572;49.540;11.932;2023-02-13T07:43:08;98921.22;;;1.78;100.00
11038;BME280;5572;49.540;11.932;2023-02-13T07:46:04;98919.63;;;1.92;100.00
11038;BME280;5572;49.540;11.932;2023-02-13T08:19:38;98881.19;;;2.09;100.00
11038;BME280;5572;49.540;11.932;2023-02-13T08:22:05;98903.69;;;2.29;100.00
11038;BME280;5572;49.540;11.932;2023-02-13T08:24:33;98914.75;;;2.54;100.00
11038;BME280;5572;49.540;11.932;2023-02-13T09:16:29;98764.69;;;2.88;100.00
11038;BME280;5572;49.540;11.932;2023-02-13T09:18:55;98790.25;;;3.32;100.00
11038;BME280;5572;49.540;11.932;2023-02-13T09:21:22;98794.31;;;3.42;100.00
11038;BME280;5572;49.540;11.932;2023-02-13T09:23:49;98759.78;;;3.27;100.00
11038;BME280;5572;49.540;11.932;2023-02-13T09:26:18;98761.50;;;3.55;100.00
11038;BME280;5572;49.540;11.932;2023-02-13T09:28:45;98772.75;;;3.92;100.00
11038;BME280;5572;49.540;11.932;2023-02-13T09:31:13;98759.56;;;4.18;100.00
11038;BME280;5572;49.540;11.932;2023-02-13T09:33:42;98729.00;;;4.06;100.00
11038;BME280;5572;49.540;11.932;2023-02-13T09:36:10;98699.47;;;3.87;100.00
11038;BME280;5572;49.540;11.932;2023-02-13T09:38:38;98677.16;;;3.80;100.00
11038;BME280;5572;49.540;11.932;2023-02-13T09:41:09;98663.78;;;3.73;100.00
11038;BME280;5572;49.540;11.932;2023-02-13T09:43:42;98669.28;;;3.99;100.00
11038;BME280;5572;49.540;11.932;2023-02-13T09:46:12;98648.34;;;4.09;100.00
11038;BME280;5572;49.540;11.932;2023-02-13T09:48:45;98637.72;;;4.22;100.00
11038;BME280;5572;49.540;11.932;2023-02-13T09:51:15;98646.25;;;4.38;100.00
11038;BME280;5572;49.540;11.932;2023-02-13T09:53:51;98612.22;;;4.32;100.00
11038;BME280;5572;49.540;11.932;2023-02-13T09:56:23;98636.69;;;4.76;100.00
11038;BME280;5572;49.540;11.932;2023-02-13T10:02:22;98577.34;;;4.86;100.00
11038;BME280;5572;49.540;11.932;2023-02-13T10:05:01;98538.78;;;4.54;100.00
11038;BME280;5572;49.540;11.932;2023-02-13T10:13:30;98540.25;;;4.76;100.00
11038;BME280;5572;49.540;11.932;2023-02-13T10:16:07;98566.81;;;5.55;100.00
11038;BME280;5572;49.540;11.932;2023-02-13T10:18:42;98542.09;;;5.27;100.00
11038;BME280;5572;49.540;11.932;2023-02-13T10:21:14;98533.03;;;5.48;100.00
11038;BME280;5572;49.540;11.932;2023-02-13T10:23:47;98514.31;;;5.98;100.00
11038;BME280;5572;49.540;11.932;2023-02-13T10:26:19;98516.13;;;6.10;100.00
11038;BME280;5572;49.540;11.932;2023-02-13T10:28:50;98500.16;;;5.78;100.00
11038;BME280;5572;49.540;11.932;2023-02-13T10:31:34;98474.03;;;6.04;100.00
11038;BME280;5572;49.540;11.932;2023-02-13T10:34:04;98480.97;;;6.49;100.00
11038;BME280;5572;49.540;11.932;2023-02-13T10:36:35;98461.16;;;6.75;100.00
11038;BME280;5572;49.540;11.932;2023-02-13T10:39:20;98409.34;;;6.43;100.00
11038;BME280;5572;49.540;11.932;2023-02-13T10:41:50;98391.25;;;6.57;100.00
11038;BME280;5572;49.540;11.932;2023-02-13T10:44:29;98329.09;;;6.04;100.00
11038;BME280;5572;49.540;11.932;2023-02-13T10:50:25;98277.69;;;6.50;100.00
11038;BME280;5572;49.540;11.932;2023-02-13T10:53:07;98248.19;;;6.43;100.00
11038;BME280;5572;49.540;11.932;2023-02-13T10:55:54;98230.59;;;6.47;100.00
11038;BME280;5572;49.540;11.932;2023-02-13T10:58:31;98208.69;;;6.08;100.00
11038;BME280;5572;49.540;11.932;2023-02-13T11:01:08;98198.00;;;6.80;100.00
11038;BME280;5572;49.540;11.932;2023-02-13T11:03:37;98179.56;;;6.65;100.00
11038;BME280;5572;49.540;11.932;2023-02-13T11:06:07;98149.66;;;6.91;100.00
11038;BME280;5572;49.540;11.932;2023-02-13T11:08:39;98124.31;;;7.28;100.00
11038;BME280;5572;49.540;11.932;2023-02-13T11:11:28;98104.84;;;7.03;100.00
11038;BME280;5572;49.540;11.932;2023-02-13T11:14:08;98080.03;;;6.89;100.00
11038;BME280;5572;49.540;11.932;2023-02-13T11:16:47;98062.00;;;6.79;100.00
11038;BME280;5572;49.540;11.932;2023-02-13T11:19:21;98032.16;;;7.21;100.00
11038;BME280;5572;49.540;11.932;2023-02-13T11:21:53;98001.53;;;7.68;100.00
11038;BME280;5572;49.540;11.932;2023-02-13T11:24:24;97974.00;;;7.77;100.00
11038;BME280;5572;49.540;11.932;2023-02-13T11:26:56;97946.78;;;8.13;100.00
11038;BME280;5572;49.540;11.932;2023-02-13T11:29:26;97913.50;;;8.19;100.00
11038;BME280;5572;49.540;11.932;2023-02-13T11:32:04;97884.06;;;8.01;100.00
11038;BME280;5572;49.540;11.932;2023-02-13T11:34:33;97872.31;;;8.07;100.00
11038;BME280;5572;49.540;11.932;2023-02-13T11:37:21;97855.41;;;8.39;100.00
11038;BME280;5572;49.540;11.932;2023-02-13T11:39:50;97824.06;;;8.33;100.00
11038;BME280;5572;49.540;11.932;2023-02-13T11:42:23;97821.53;;;8.27;100.00
11038;BME280;5572;49.540;11.932;2023-02-13T11:44:52;97818.69;;;7.89;100.00
11038;BME280;5572;49.540;11.932;2023-02-13T11:47:33;97811.75;;;8.21;100.00
11038;BME280;5572;49.540;11.932;2023-02-13T11:50:02;97804.75;;;8.53;100.00
11038;BME280;5572;49.540;11.932;2023-02-13T11:52:31;97854.34;;;8.24;100.00
11038;BME280;5572;49.540;11.932;2023-02-13T11:55:02;97825.41;;;8.47;100.00
11038;BME280;5572;49.540;11.932;2023-02-13T11:57:30;97810.72;;;8.38;100.00
11038;BME280;5572;49.540;11.932;2023-02-13T11:59:58;97800.78;;;8.11;100.00
11038;BME280;5572;49.540;11.932;2023-02-13T12:02:27;97777.81;;;8.20;100.00
11038;BME280;5572;49.540;11.932;2023-02-13T12:05:12;97756.41;;;8.30;100.00
11038;BME280;5572;49.540;11.932;2023-02-13T12:07:41;97532.34;;;8.54;100.00
11038;BME280;5572;49.540;11.932;2023-02-13T12:10:18;97539.84;;;8.52;100.00
11038;BME280;5572;49.540;11.932;2023-02-13T12:12:52;97532.47;;;8.90;100.00
11038;BME280;5572;49.540;11.932;2023-02-13T12:15:21;97575.06;;;8.46;100.00
11038;BME280;5572;49.540;11.932;2023-02-13T12:17:56;97608.41;;;8.61;100.00
11038;BME280;5572;49.540;11.932;2023-02-13T12:20:32;97631.16;;;8.49;100.00
11038;BME280;5572;49.540;11.932;2023-02-13T12:23:07;97663.34;;;8.39;100.00
11038;BME280;5572;49.540;11.932;2023-02-13T12:25:45;97691.63;;;8.57;100.00
11038;BME280;5572;49.540;11.932;2023-02-13T12:28:16;97718.09;;;8.60;100.00
11038;BME280;5572;49.540;11.932;2023-02-13T12:31:02;97729.19;;;8.85;100.00
11038;BME280;5572;49.540;11.932;2023-02-13T12:33:48;97787.84;;;8.41;100.00
11038;BME280;5572;49.540;11.932;2023-02-13T12:36:20;97822.88;;;8.41;100.00
11038;BME280;5572;49.540;11.932;2023-02-13T12:39:04;97857.81;;;8.52;100.00
11038;BME280;5572;49.540;11.932;2023-02-13T12:41:39;97869.75;;;8.72;100.00
11038;BME280;5572;49.540;11.932;2023-02-13T12:44:33;97884.59;;;8.91;100.00
11038;BME280;5572;49.540;11.932;2023-02-13T12:47:13;97963.88;;;8.46;100.00
11038;BME280;5572;49.540;11.932;2023-02-13T12:49:54;98010.06;;;8.66;100.00
11038;BME280;5572;49.540;11.932;2023-02-13T12:52:34;98044.88;;;8.84;100.00
11038;BME280;5572;49.540;11.932;2023-02-13T12:55:17;98070.41;;;8.65;100.00
11038;BME280;5572;49.540;11.932;2023-02-13T12:57:55;98117.66;;;8.45;100.00
11038;BME280;5572;49.540;11.932;2023-02-13T13:00:33;98116.47;;;8.91;100.00
11038;BME280;5572;49.540;11.932;2023-02-13T13:06:15;98207.84;;;8.53;100.00
11038;BME280;5572;49.540;11.932;2023-02-13T13:11:56;98269.75;;;8.71;100.00
11038;BME280;5572;49.540;11.932;2023-02-13T13:14:34;98271.25;;;8.90;100.00
11038;BME280;5572;49.540;11.932;2023-02-13T13:17:10;98305.81;;;8.82;100.00
11038;BME280;5572;49.540;11.932;2023-02-13T13:19:44;98338.41;;;8.80;100.00
11038;BME280;5572;49.540;11.932;2023-02-13T13:22:17;98352.25;;;8.84;100.00
11038;BME280;5572;49.540;11.932;2023-02-13T13:24:54;98382.59;;;8.79;100.00
11038;BME280;5572;49.540;11.932;2023-02-13T13:27:28;98428.84;;;8.53;100.00
11038;BME280;5572;49.540;11.932;2023-02-13T13:29:58;98444.72;;;8.84;100.00
11038;BME280;5572;49.540;11.932;2023-02-13T13:32:27;98442.16;;;8.89;100.00
11038;BME280;5572;49.540;11.932;2023-02-13T13:34:56;98457.91;;;8.92;100.00
11038;BME280;5572;49.540;11.932;2023-02-13T13:37:29;98516.63;;;8.90;100.00
11038;BME280;5572;49.540;11.932;2023-02-13T13:40:02;98551.00;;;8.65;100.00
11038;BME280;5572;49.540;11.932;2023-02-13T13:42:37;98575.84;;;8.38;100.00
11038;BME280;5572;49.540;11.932;2023-02-13T13:45:29;98572.13;;;8.68;100.00
11038;BME280;5572;49.540;11.932;2023-02-13T13:48:15;98594.75;;;8.79;100.00
11038;BME280;5572;49.540;11.932;2023-02-13T13:50:44;98658.84;;;8.48;100.00
11038;BME280;5572;49.540;11.932;2023-02-13T13:53:12;98641.75;;;8.53;100.00
11038;BME280;5572;49.540;11.932;2023-02-13T13:56:05;98655.63;;;8.57;100.00
11038;BME280;5572;49.540;11.932;2023-02-13T13:58:43;98663.50;;;8.41;100.00
11038;BME280;5572;49.540;11.932;2023-02-13T14:01:35;98680.63;;;8.28;100.00
11038;BME280;5572;49.540;11.932;2023-02-13T14:04:03;98681.97;;;8.55;100.00
11038;BME280;5572;49.540;11.932;2023-02-13T14:07:20;98707.88;;;8.38;100.00
11038;BME280;5572;49.540;11.932;2023-02-13T14:09:48;98719.66;;;8.19;100.00
11038;BME280;5572;49.540;11.932;2023-02-13T14:12:36;98737.78;;;8.30;100.00
11038;BME280;5572;49.540;11.932;2023-02-13T14:15:04;98746.81;;;8.18;100.00
11038;BME280;5572;49.540;11.932;2023-02-13T14:17:51;98747.75;;;8.30;100.00
11038;BME280;5572;49.540;11.932;2023-02-13T14:20:32;98747.69;;;8.36;100.00
11038;BME280;5572;49.540;11.932;2023-02-13T14:23:14;98772.13;;;8.35;100.00
11038;BME280;5572;49.540;11.932;2023-02-13T14:25:43;98773.97;;;8.41;100.00
11038;BME280;5572;49.540;11.932;2023-02-13T14:28:20;98773.13;;;8.40;100.00
11038;BME280;5572;49.540;11.932;2023-02-13T14:30:48;98794.78;;;8.03;100.00
11038;BME280;5572;49.540;11.932;2023-02-13T14:33:24;98807.69;;;8.25;100.00
11038;BME280;5572;49.540;11.932;2023-02-13T14:35:59;98820.88;;;8.33;100.00
11038;BME280;5572;49.540;11.932;2023-02-13T14:38:28;98823.06;;;8.18;100.00
11038;BME280;5572;49.540;11.932;2023-02-13T14:40:55;98830.28;;;8.24;100.00
11038;BME280;5572;49.540;11.932;2023-02-13T14:43:34;98839.44;;;8.17;100.00
11038;BME280;5572;49.540;11.932;2023-02-13T14:46:06;98865.66;;;7.97;100.00
11038;BME280;5572;49.540;11.932;2023-02-13T14:48:42;98860.34;;;8.15;100.00
11038;BME280;5572;49.540;11.932;2023-02-13T14:51:19;98868.06;;;8.05;100.00
11038;BME280;5572;49.540;11.932;2023-02-13T14:53:56;98865.50;;;7.92;100.00
11038;BME280;5572;49.540;11.932;2023-02-13T14:56:25;98862.41;;;7.88;100.00
11038;BME280;5572;49.540;11.932;2023-02-13T14:58:53;98869.47;;;7.83;100.00
11038;BME280;5572;49.540;11.932;2023-02-13T15:01:27;98899.78;;;7.66;100.00
11038;BME280;5572;49.540;11.932;2023-02-13T15:03:58;98910.84;;;7.45;100.00
11038;BME280;5572;49.540;11.932;2023-02-13T15:06:31;98976.84;;;7.47;100.00
11038;BME280;5572;49.540;11.932;2023-02-13T15:09:03;98967.97;;;7.40;100.00
11038;BME280;5572;49.540;11.932;2023-02-13T15:11:34;98967.34;;;7.45;100.00
11038;BME280;5572;49.540;11.932;2023-02-13T15:14:21;98976.66;;;7.42;100.00
11038;BME280;5572;49.540;11.932;2023-02-13T15:16:52;98965.47;;;7.45;100.00
11038;BME280;5572;49.540;11.932;2023-02-13T15:19:21;98954.53;;;7.40;100.00
11038;BME280;5572;49.540;11.932;2023-02-13T15:21:51;98954.94;;;7.44;100.00
11038;BME280;5572;49.540;11.932;2023-02-13T15:24:21;98972.13;;;7.36;100.00
11038;BME280;5572;49.540;11.932;2023-02-13T15:26:50;98979.59;;;7.28;100.00
11038;BME280;5572;49.540;11.932;2023-02-13T15:29:18;98983.94;;;7.22;100.00
11038;BME280;5572;49.540;11.932;2023-02-13T15:31:45;98999.47;;;7.20;100.00
11038;BME280;5572;49.540;11.932;2023-02-13T15:34:20;99000.28;;;7.14;100.00
11038;BME280;5572;49.540;11.932;2023-02-13T15:36:47;99012.91;;;6.94;100.00
11038;BME280;5572;49.540;11.932;2023-02-13T15:39:17;99010.25;;;6.88;100.00
11038;BME280;5572;49.540;11.932;2023-02-13T15:41:47;99012.69;;;6.77;100.00
11038;BME280;5572;49.540;11.932;2023-02-13T15:44:19;99016.22;;;6.71;100.00
11038;BME280;5572;49.540;11.932;2023-02-13T15:46:48;99019.09;;;6.63;100.00
11038;BME280;5572;49.540;11.932;2023-02-13T15:49:17;99017.22;;;6.57;100.00
11038;BME280;5572;49.540;11.932;2023-02-13T15:51:48;99007.69;;;6.48;100.00
11038;BME280;5572;49.540;11.932;2023-02-13T15:54:22;98995.88;;;6.36;100.00
11038;BME280;5572;49.540;11.932;2023-02-13T15:56:52;99006.34;;;6.11;100.00
11038;BME280;5572;49.540;11.932;2023-02-13T15:59:20;99005.72;;;6.09;100.00
11038;BME280;5572;49.540;11.932;2023-02-13T16:01:48;98989.38;;;5.98;100.00
11038;BME280;5572;49.540;11.932;2023-02-13T16:04:16;98988.50;;;5.85;100.00
11038;BME280;5572;49.540;11.932;2023-02-13T16:06:45;98991.16;;;5.78;100.00
11038;BME280;5572;49.540;11.932;2023-02-13T16:09:26;98979.13;;;5.74;100.00
11038;BME280;5572;49.540;11.932;2023-02-13T16:11:59;98966.19;;;5.44;100.00
11038;BME280;5572;49.540;11.932;2023-02-13T16:14:27;98954.59;;;5.30;100.00
11038;BME280;5572;49.540;11.932;2023-02-13T16:16:57;98931.09;;;4.99;100.00
11038;BME280;5572;49.540;11.932;2023-02-13T16:19:31;98914.72;;;4.60;100.00
11038;BME280;5572;49.540;11.932;2023-02-13T16:22:02;98897.50;;;4.21;100.00
11038;BME280;5572;49.540;11.932;2023-02-13T16:24:30;98899.09;;;4.15;100.00
11038;BME280;5572;49.540;11.932;2023-02-13T16:26:58;98886.34;;;3.96;100.00
11038;BME280;5572;49.540;11.932;2023-02-13T16:29:25;98889.16;;;3.88;100.00
11038;BME280;5572;49.540;11.932;2023-02-13T16:32:02;98885.47;;;3.68;100.00
11038;BME280;5572;49.540;11.932;2023-02-13T16:34:30;98883.22;;;3.72;100.00
11038;BME280;5572;49.540;11.932;2023-02-13T16:36:57;98865.34;;;3.51;100.00
11038;BME280;5572;49.540;11.932;2023-02-13T16:39:26;98859.03;;;3.24;100.00
11038;BME280;5572;49.540;11.932;2023-02-13T16:41:53;98847.47;;;2.73;100.00
11038;BME280;5572;49.540;11.932;2023-02-13T16:44:23;98819.75;;;2.89;100.00
11038;BME280;5572;49.540;11.932;2023-02-13T16:46:52;98796.09;;;2.71;100.00
11038;BME280;5572;49.540;11.932;2023-02-13T16:49:21;98764.28;;;2.70;100.00
11038;BME280;5572;49.540;11.932;2023-02-13T16:51:55;98742.94;;;2.55;100.00
11038;BME280;5572;49.540;11.932;2023-02-13T16:54:31;98733.84;;;2.21;100.00
11038;BME280;5572;49.540;11.932;2023-02-13T16:57:02;98682.94;;;2.52;100.00
11038;BME280;5572;49.540;11.932;2023-02-13T16:59:47;98644.31;;;2.48;100.00
11038;BME280;5572;49.540;11.932;2023-02-13T17:02:17;98613.22;;;2.40;100.00
11038;BME280;5572;49.540;11.932;2023-02-13T17:04:47;98593.03;;;2.17;100.00
11038;BME280;5572;49.540;11.932;2023-02-13T17:07:17;98591.06;;;1.75;100.00
11038;BME280;5572;49.540;11.932;2023-02-13T17:09:51;98567.47;;;1.72;100.00
11038;BME280;5572;49.540;11.932;2023-02-13T17:12:18;98547.81;;;1.59;100.00
11038;BME280;5572;49.540;11.932;2023-02-13T17:14:47;98520.06;;;1.54;100.00
11038;BME280;5572;49.540;11.932;2023-02-13T17:22:39;98430.13;;;1.41;100.00
11038;BME280;5572;49.540;11.932;2023-02-13T17:25:14;98435.69;;;0.96;100.00
11038;BME280;5572;49.540;11.932;2023-02-13T17:40:40;98285.13;;;1.08;100.00
11038;BME280;5572;49.540;11.932;2023-02-13T17:43:09;98249.84;;;1.21;100.00
11038;BME280;5572;49.540;11.932;2023-02-13T17:45:36;98237.91;;;1.17;100.00
11038;BME280;5572;49.540;11.932;2023-02-13T18:07:52;98084.09;;;0.29;100.00
11038;BME280;5572;49.540;11.932;2023-02-13T18:10:22;98071.56;;;0.23;100.00
11038;BME280;5572;49.540;11.932;2023-02-13T18:12:50;98057.75;;;0.13;100.00
11038;BME280;5572;49.540;11.932;2023-02-13T18:15:18;98044.13;;;0.01;100.00
11038;BME280;5572;49.540;11.932;2023-02-13T18:17:45;98014.97;;;0.08;100.00
11038;BME280;5572;49.540;11.932;2023-02-13T18:20:15;97996.59;;;0.13;100.00
11038;BME280;5572;49.540;11.932;2023-02-13T18:22:42;97994.56;;;-0.06;100.00
11038;BME280;5572;49.540;11.932;2023-02-13T18:25:11;97993.66;;;-0.34;100.00
11038;BME280;5572;49.540;11.932;2023-02-13T18:27:39;97970.84;;;-0.28;100.00
11038;BME280;5572;49.540;11.932;2023-02-13T18:30:07;97948.38;;;-0.26;100.00
11038;BME280;5572;49.540;11.932;2023-02-13T18:32:35;97935.31;;;-0.27;100.00
11038;BME280;5572;49.540;11.932;2023-02-13T18:35:02;97918.66;;;-0.15;100.00
11038;BME280;5572;49.540;11.932;2023-02-13T18:37:31;97914.19;;;-0.35;100.00
11038;BME280;5572;49.540;11.932;2023-02-13T18:39:58;97905.94;;;-0.40;100.00
11038;BME280;5572;49.540;11.932;2023-02-13T18:42:27;97903.28;;;-0.40;100.00
11038;BME280;5572;49.540;11.932;2023-02-13T18:44:55;97884.19;;;-0.50;100.00
11038;BME280;5572;49.540;11.932;2023-02-13T18:47:22;97853.84;;;-0.20;100.00
11038;BME280;5572;49.540;11.932;2023-02-13T18:49:49;97839.69;;;-0.27;100.00
11038;BME280;5572;49.540;11.932;2023-02-13T18:52:16;97830.56;;;-0.18;100.00
11038;BME280;5572;49.540;11.932;2023-02-13T18:54:43;97849.09;;;-0.46;100.00
11038;BME280;5572;49.540;11.932;2023-02-13T18:57:10;97836.97;;;-0.55;100.00
11038;BME280;5572;49.540;11.932;2023-02-13T18:59:38;97832.28;;;-0.53;100.00
11038;BME280;5572;49.540;11.932;2023-02-13T19:02:05;97821.53;;;-0.45;100.00
11038;BME280;5572;49.540;11.932;2023-02-13T19:04:33;97823.91;;;-0.50;100.00
11038;BME280;5572;49.540;11.932;2023-02-13T19:07:00;97813.72;;;-0.53;100.00
11038;BME280;5572;49.540;11.932;2023-02-13T19:09:27;97805.75;;;-0.53;100.00
11038;BME280;5572;49.540;11.932;2023-02-13T19:11:54;97804.53;;;-0.50;100.00
11038;BME280;5572;49.540;11.932;2023-02-13T19:14:21;97790.25;;;-0.49;100.00
11038;BME280;5572;49.540;11.932;2023-02-13T19:16:49;97777.19;;;-0.44;100.00
11038;BME280;5572;49.540;11.932;2023-02-13T19:19:16;97770.16;;;-0.58;100.00
11038;BME280;5572;49.540;11.932;2023-02-13T19:21:43;97762.63;;;-0.55;100.00
11038;BME280;5572;49.540;11.932;2023-02-13T19:24:10;97751.06;;;-0.47;100.00
11038;BME280;5572;49.540;11.932;2023-02-13T19:26:39;97742.19;;;-0.54;100.00
11038;BME280;5572;49.540;11.932;2023-02-13T19:29:07;97744.34;;;-0.64;100.00
11038;BME280;5572;49.540;11.932;2023-02-13T19:31:36;97738.88;;;-0.63;100.00
11038;BME280;5572;49.540;11.932;2023-02-13T19:34:05;97730.00;;;-0.70;100.00
11038;BME280;5572;49.540;11.932;2023-02-13T19:36:33;97722.69;;;-0.68;100.00
11038;BME280;5572;49.540;11.932;2023-02-13T19:39:03;97709.19;;;-0.73;100.00
11038;BME280;5572;49.540;11.932;2023-02-13T19:41:33;97706.97;;;-0.69;100.00
11038;BME280;5572;49.540;11.932;2023-02-13T19:44:01;97691.66;;;-0.67;100.00
11038;BME280;5572;49.540;11.932;2023-02-13T19:46:33;97699.16;;;-0.77;100.00
11038;BME280;5572;49.540;11.932;2023-02-13T19:49:00;97698.13;;;-0.76;100.00
11038;BME280;5572;49.540;11.932;2023-02-13T19:51:31;97696.56;;;-0.91;100.00
11038;BME280;5572;49.540;11.932;2023-02-13T19:54:00;97701.59;;;-0.96;100.00
11038;BME280;5572;49.540;11.932;2023-02-13T19:56:29;97716.25;;;-1.21;100.00
11038;BME280;5572;49.540;11.932;2023-02-13T19:58:57;97719.72;;;-1.21;100.00
11038;BME280;5572;49.540;11.932;2023-02-13T20:01:26;97696.66;;;-0.99;100.00
11038;BME280;5572;49.540;11.932;2023-02-13T20:03:54;97690.81;;;-0.95;100.00
11038;BME280;5572;49.540;11.932;2023-02-13T20:06:22;97691.31;;;-1.06;100.00
11038;BME280;5572;49.540;11.932;2023-02-13T20:08:51;97685.31;;;-0.93;100.00
11038;BME280;5572;49.540;11.932;2023-02-13T20:11:20;97703.06;;;-1.15;100.00
11038;BME280;5572;49.540;11.932;2023-02-13T20:13:53;97696.72;;;-1.14;100.00
11038;BME280;5572;49.540;11.932;2023-02-13T20:16:22;97689.63;;;-1.13;100.00
11038;BME280;5572;49.540;11.932;2023-02-13T20:18:49;97692.84;;;-1.18;100.00
11038;BME280;5572;49.540;11.932;2023-02-13T20:21:17;97685.13;;;-1.13;100.00
11038;BME280;5572;49.540;11.932;2023-02-13T20:23:48;97688.47;;;-1.04;100.00
11038;BME280;5572;49.540;11.932;2023-02-13T20:26:18;97685.88;;;-1.19;100.00
11038;BME280;5572;49.540;11.932;2023-02-13T20:28:46;97677.44;;;-1.08;100.00
11038;BME280;5572;49.540;11.932;2023-02-13T20:31:15;97675.97;;;-1.10;100.00
11038;BME280;5572;49.540;11.932;2023-02-13T20:33:43;97678.06;;;-1.06;100.00
11038;BME280;5572;49.540;11.932;2023-02-13T20:36:13;97679.66;;;-1.11;100.00
11038;BME280;5572;49.540;11.932;2023-02-13T20:38:44;97687.19;;;-1.29;100.00
11038;BME280;5572;49.540;11.932;2023-02-13T20:41:14;97683.59;;;-1.22;100.00
11038;BME280;5572;49.540;11.932;2023-02-13T20:43:44;97688.16;;;-1.37;100.00
11038;BME280;5572;49.540;11.932;2023-02-13T20:46:12;97679.88;;;-1.27;100.00
11038;BME280;5572;49.540;11.932;2023-02-13T20:48:42;97689.66;;;-1.28;100.00
11038;BME280;5572;49.540;11.932;2023-02-13T20:51:12;97693.91;;;-1.33;100.00
11038;BME280;5572;49.540;11.932;2023-02-13T20:53:43;97689.28;;;-1.46;100.00
11038;BME280;5572;49.540;11.932;2023-02-13T20:56:12;97693.31;;;-1.50;100.00
11038;BME280;5572;49.540;11.932;2023-02-13T20:58:43;97696.75;;;-1.49;100.00
11038;BME280;5572;49.540;11.932;2023-02-13T21:01:11;97701.34;;;-1.43;100.00
11038;BME280;5572;49.540;11.932;2023-02-13T21:03:39;97694.03;;;-1.41;100.00
